Accueil
METAR-TAF:

METAR-TAF

Aéroports :

Aéroport de Noto

Wajima, Japon

latitude: 37-17-36N, longitude: 136-57-44E, altitude: 219 m

Observation

Le bulletin a été fait il y a 3 heures et 45 minutes, à 10:00 UTC
Vent 2 kt de direction variable
Température 28°C
Humidité 70%
Pression 1012 hPa
Visibilité 10 km ou plus
pas de nuages en-dessous de 1500 mètres et pas de cumulonimbus.

METAR: RJNW 171000Z VRB02KT CAVOK 28/22 Q1012

Heure: 22:45 (13:45 UTC)


TAF: absent

Observations et prévisions météorologiques de plus de 4000 aéroports (messages METAR et TAF).

Les stations disponibles sont représentées par des disques jaunes et rouges sur la carte.

Passer la souris dessus pour voir le nom de la station.

Cliquer dessus pour voir les observations et prévisions météorologiques.

Pour changer de carte: cliquez sur les boutons verts avec une croix noire pour zoomer, sur le bouton vert avec un tiret pour effectuer un zoom arrière, ou sur les flèches vertes pour les cartes adjacentes.


METAR-TAF: